createdAt,value
2019-02-21T00:01:25.890Z,21.65
2019-02-21T00:03:58.826Z,22.15
2019-02-21T00:06:31.785Z,22.05
2019-02-21T00:09:05.372Z,23.02
2019-02-21T00:11:38.306Z,23.95
2019-02-21T00:14:11.606Z,24.67
2019-02-21T00:16:44.534Z,22.98
2019-02-21T00:19:17.345Z,23.45
2019-02-21T00:21:57.649Z,22.93
2019-02-21T00:24:33.225Z,21.62
2019-02-21T00:27:06.112Z,22.80
2019-02-21T00:29:51.553Z,21.67
2019-02-21T00:32:25.705Z,21.93
2019-02-21T00:35:09.185Z,21.02
2019-02-21T00:37:42.045Z,19.45
2019-02-21T00:40:14.965Z,22.00
2019-02-21T00:42:47.865Z,23.02
2019-02-21T00:45:20.967Z,21.48
2019-02-21T00:47:53.750Z,21.02
2019-02-21T00:50:26.985Z,21.80
2019-02-21T00:52:59.965Z,20.72
2019-02-21T00:55:32.766Z,21.37
2019-02-21T00:58:05.565Z,24.20
2019-02-21T01:00:46.184Z,23.70
2019-02-21T01:03:13.208Z,24.77
2019-02-21T01:05:46.126Z,23.77
2019-02-21T01:08:19.368Z,24.37
2019-02-21T01:10:52.906Z,23.42
2019-02-21T01:13:25.805Z,23.77
2019-02-21T01:15:59.205Z,23.83
2019-02-21T01:18:32.369Z,26.30
2019-02-21T01:21:05.430Z,26.87
2019-02-21T01:23:38.644Z,26.90
2019-02-21T01:26:11.725Z,26.37
2019-02-21T01:28:44.705Z,26.33
2019-02-21T01:31:17.809Z,25.50
2019-02-21T01:33:50.804Z,24.02
2019-02-21T01:36:24.645Z,25.05
2019-02-21T01:38:57.693Z,22.85
2019-02-21T01:41:30.605Z,24.27
2019-02-21T01:44:04.688Z,24.30
2019-02-21T01:46:40.686Z,23.50
2019-02-21T01:49:14.804Z,23.00
2019-02-21T01:51:47.665Z,22.50
2019-02-21T01:54:20.708Z,22.15
2019-02-21T01:56:53.605Z,22.52
2019-02-21T01:59:26.704Z,21.02
2019-02-21T02:01:59.585Z,22.50
2019-02-21T02:04:32.725Z,21.60
2019-02-21T02:07:05.486Z,21.77
2019-02-21T02:09:39.365Z,21.87
2019-02-21T02:12:16.545Z,22.20
2019-02-21T02:14:49.685Z,22.22
2019-02-21T02:17:22.666Z,24.47
2019-02-21T02:19:55.645Z,24.02
2019-02-21T02:22:28.565Z,22.87
2019-02-21T02:25:01.902Z,23.40
2019-02-21T02:27:34.965Z,22.10
2019-02-21T02:30:07.987Z,22.17
2019-02-21T02:32:40.747Z,21.50
2019-02-21T02:35:13.765Z,22.82
2019-02-21T02:37:46.707Z,23.22
2019-02-21T02:40:20.007Z,24.07
2019-02-21T02:42:52.986Z,24.23
2019-02-21T02:45:26.292Z,24.63
2019-02-21T02:47:59.209Z,24.80
2019-02-21T02:50:32.397Z,25.45
2019-02-21T02:53:05.405Z,24.65
2019-02-21T02:55:38.426Z,24.40
2019-02-21T02:58:11.245Z,24.85
2019-02-21T03:00:44.009Z,24.07
2019-02-21T03:03:16.945Z,23.92
2019-02-21T03:05:49.984Z,24.20
2019-02-21T03:08:22.947Z,25.08
2019-02-21T03:10:55.865Z,24.25
2019-02-21T03:13:28.725Z,24.15
2019-02-21T03:16:01.487Z,23.95
2019-02-21T03:18:34.865Z,24.12
2019-02-21T03:21:07.666Z,24.18
2019-02-21T03:23:40.552Z,23.45
2019-02-21T03:26:13.545Z,23.65
2019-02-21T03:28:46.485Z,24.67
2019-02-21T03:31:19.908Z,25.25
2019-02-21T03:33:52.826Z,22.85
2019-02-21T03:36:25.746Z,23.30
2019-02-21T03:38:58.676Z,24.45
2019-02-21T03:41:31.783Z,23.85
2019-02-21T03:44:05.145Z,23.92
2019-02-21T03:46:38.052Z,24.32
2019-02-21T03:49:10.973Z,23.05
2019-02-21T03:51:44.067Z,23.80
2019-02-21T03:54:16.865Z,25.27
2019-02-21T03:56:52.704Z,25.32
2019-02-21T03:59:25.825Z,25.23
2019-02-21T04:02:05.438Z,23.60
2019-02-21T04:04:33.435Z,25.40
2019-02-21T04:07:06.546Z,25.52
2019-02-21T04:09:39.305Z,27.13
2019-02-21T04:12:12.226Z,26.02
2019-02-21T04:14:45.008Z,27.50
2019-02-21T04:17:18.386Z,27.05
2019-02-21T04:19:51.284Z,27.40
2019-02-21T04:22:26.429Z,26.82
2019-02-21T04:24:59.325Z,27.60
2019-02-21T04:27:32.129Z,27.62
2019-02-21T04:30:05.026Z,24.63
2019-02-21T04:32:37.905Z,23.12
2019-02-21T04:35:10.888Z,21.37
2019-02-21T04:37:45.027Z,23.45
2019-02-21T04:40:17.804Z,22.70
2019-02-21T04:42:52.945Z,23.83
2019-02-21T04:45:25.967Z,21.68
2019-02-21T04:47:58.845Z,24.00
2019-02-21T04:50:32.065Z,22.82
2019-02-21T04:53:16.107Z,20.25
2019-02-21T04:55:49.125Z,19.87
2019-02-21T04:58:22.625Z,21.10
2019-02-21T05:00:55.485Z,20.55
2019-02-21T05:03:28.526Z,21.00
2019-02-21T05:06:01.406Z,20.88
2019-02-21T05:08:34.385Z,22.07
2019-02-21T05:11:07.164Z,22.00
2019-02-21T05:13:40.105Z,20.95
2019-02-21T05:16:12.885Z,22.82
2019-02-21T05:18:46.924Z,21.95
2019-02-21T05:21:20.965Z,21.27
2019-02-21T05:23:53.965Z,20.02
2019-02-21T05:26:29.586Z,17.42
2019-02-21T05:29:03.947Z,20.75
2019-02-21T05:32:06.947Z,23.30
2019-02-21T05:34:47.545Z,23.75
2019-02-21T05:37:29.205Z,26.17
2019-02-21T05:40:07.727Z,28.38
2019-02-21T05:42:54.525Z,29.95
2019-02-21T05:45:32.251Z,29.45
2019-02-21T05:48:09.705Z,30.17
2019-02-21T05:51:00.475Z,28.60
2019-02-21T05:53:35.850Z,28.02
2019-02-21T05:56:20.606Z,28.27
2019-02-21T05:59:09.265Z,29.30
2019-02-21T06:01:46.926Z,28.95
2019-02-21T06:04:38.645Z,29.37
2019-02-21T06:07:16.086Z,29.82
2019-02-21T06:09:50.505Z,29.65
2019-02-21T06:12:33.129Z,29.80
2019-02-21T06:15:01.056Z,29.52
2019-02-21T06:17:54.048Z,28.52
2019-02-21T06:20:33.675Z,26.73
2019-02-21T06:23:08.486Z,23.57
2019-02-21T06:25:51.078Z,22.82
2019-02-21T06:28:24.507Z,20.20
2019-02-21T06:30:59.052Z,19.55
2019-02-21T06:33:32.538Z,18.73
2019-02-21T06:36:07.198Z,21.12
2019-02-21T06:38:41.263Z,20.02
2019-02-21T06:41:15.166Z,22.40
2019-02-21T06:43:49.128Z,22.22
2019-02-21T06:46:21.987Z,20.72
2019-02-21T06:48:54.953Z,21.07
2019-02-21T06:51:27.806Z,22.32
2019-02-21T06:54:01.014Z,20.15
2019-02-21T06:56:33.973Z,19.80
2019-02-21T06:59:07.025Z,19.75
2019-02-21T07:01:45.292Z,19.12
2019-02-21T07:04:18.326Z,17.00
2019-02-21T07:06:56.782Z,18.77
2019-02-21T07:09:29.406Z,18.87
2019-02-21T07:12:02.459Z,16.57
2019-02-21T07:14:37.269Z,16.23
2019-02-21T07:17:10.147Z,18.98
2019-02-21T07:19:43.985Z,16.15
2019-02-21T07:22:20.073Z,18.48
2019-02-21T07:24:54.176Z,16.12
2019-02-21T07:27:27.865Z,16.50
2019-02-21T07:30:00.967Z,17.52
2019-02-21T07:32:36.011Z,17.02
2019-02-21T07:35:09.054Z,16.48
2019-02-21T07:37:42.363Z,18.32
2019-02-21T07:40:20.054Z,19.30
2019-02-21T07:42:50.027Z,21.05
2019-02-21T07:45:22.967Z,21.33
2019-02-21T07:47:55.851Z,22.42
2019-02-21T07:50:30.747Z,22.98
2019-02-21T07:53:03.348Z,23.10
2019-02-21T07:55:38.428Z,23.00
2019-02-21T07:58:12.887Z,22.50
2019-02-21T08:00:45.866Z,22.73
2019-02-21T08:03:29.790Z,20.23
2019-02-21T08:05:54.344Z,19.42
2019-02-21T08:08:27.150Z,20.57
2019-02-21T08:11:00.147Z,20.25
2019-02-21T08:13:32.967Z,21.05
2019-02-21T08:16:06.868Z,22.13
2019-02-21T08:18:39.787Z,22.73
2019-02-21T08:21:13.807Z,22.00
2019-02-21T08:23:50.742Z,18.90
2019-02-21T08:26:23.767Z,20.88
2019-02-21T08:28:56.704Z,22.52
2019-02-21T08:31:29.787Z,23.07
2019-02-21T08:34:04.542Z,22.90
2019-02-21T08:36:38.092Z,22.40
2019-02-21T08:39:11.141Z,23.45
2019-02-21T08:41:44.232Z,23.62
2019-02-21T08:44:17.246Z,20.95
2019-02-21T08:46:50.344Z,23.50
2019-02-21T08:49:23.484Z,22.90
2019-02-21T08:51:56.388Z,21.40
2019-02-21T08:54:29.352Z,22.13
2019-02-21T08:57:03.217Z,23.22
2019-02-21T08:59:36.426Z,22.07
2019-02-21T09:07:56.628Z,20.90
2019-02-21T09:10:29.545Z,20.62
2019-02-21T09:13:02.457Z,20.43
2019-02-21T09:15:35.785Z,21.02
2019-02-21T09:18:08.745Z,20.68
2019-02-21T09:20:41.625Z,21.70
2019-02-21T09:23:15.880Z,21.57
2019-02-21T09:25:49.700Z,21.48
2019-02-21T09:28:24.565Z,21.42
2019-02-21T09:30:57.945Z,20.12
2019-02-21T09:33:30.984Z,20.17
2019-02-21T09:36:03.907Z,20.45
2019-02-21T09:38:36.671Z,19.67
2019-02-21T09:41:10.185Z,19.37
2019-02-21T09:43:43.045Z,19.50
2019-02-21T09:46:15.906Z,19.12
2019-02-21T09:48:49.082Z,19.07
2019-02-21T09:51:22.044Z,19.23
2019-02-21T09:53:54.865Z,19.27
2019-02-21T09:56:30.688Z,18.15
2019-02-21T09:59:02.299Z,19.10
2019-02-21T10:01:35.485Z,18.70
2019-02-21T10:04:08.365Z,19.20
2019-02-21T10:06:41.454Z,18.55
2019-02-21T10:09:14.425Z,18.60
2019-02-21T10:11:47.307Z,19.62
2019-02-21T10:14:21.594Z,19.10
2019-02-21T10:16:54.645Z,19.23
2019-02-21T10:19:27.526Z,18.85
2019-02-21T10:22:00.799Z,18.98
2019-02-21T10:24:33.924Z,19.57
2019-02-21T10:27:06.985Z,19.92
2019-02-21T10:29:39.950Z,20.05
2019-02-21T10:32:13.344Z,20.77
2019-02-21T10:34:46.576Z,21.50
2019-02-21T10:37:19.465Z,19.67
2019-02-21T10:39:52.358Z,18.80
2019-02-21T10:42:25.485Z,20.45
2019-02-21T10:44:59.006Z,22.35
2019-02-21T10:47:31.745Z,20.80
2019-02-21T10:50:04.584Z,19.27
2019-02-21T10:52:37.375Z,20.68
2019-02-21T10:55:10.213Z,19.45
2019-02-21T10:57:45.367Z,19.10
2019-02-21T11:00:20.565Z,19.50
2019-02-21T11:02:52.825Z,18.52
2019-02-21T11:05:25.985Z,19.00
2019-02-21T11:07:58.825Z,18.37
2019-02-21T11:10:33.325Z,19.00
2019-02-21T11:13:06.304Z,19.95
2019-02-21T11:15:41.922Z,17.77
2019-02-21T11:18:15.085Z,18.42
2019-02-21T11:20:48.084Z,17.98
2019-02-21T11:23:21.026Z,15.03
2019-02-21T11:25:54.025Z,14.60
2019-02-21T11:28:27.273Z,17.17
2019-02-21T11:31:00.253Z,17.37
2019-02-21T11:33:33.085Z,17.62
2019-02-21T11:36:05.932Z,16.23
2019-02-21T11:38:38.804Z,15.95
2019-02-21T11:41:11.806Z,16.57
2019-02-21T11:43:44.784Z,18.62
2019-02-21T11:46:17.964Z,14.15
2019-02-21T11:48:50.967Z,12.75
2019-02-21T11:51:23.945Z,12.85
2019-02-21T11:53:56.864Z,13.15
2019-02-21T11:56:30.723Z,11.48
2019-02-21T11:59:03.593Z,15.00
2019-02-21T12:01:36.408Z,9.98
2019-02-21T12:04:09.144Z,21.25
2019-02-21T12:06:42.027Z,10.50
2019-02-21T12:09:14.925Z,12.78
2019-02-21T12:11:47.904Z,27.60
2019-02-21T12:14:20.731Z,11.97
2019-02-21T12:16:54.252Z,15.00
2019-02-21T12:19:27.588Z,11.65
2019-02-21T12:22:00.525Z,10.08
2019-02-21T12:24:34.013Z,12.65
2019-02-21T12:27:06.992Z,12.65
2019-02-21T12:29:39.948Z,18.50
2019-02-21T12:32:13.076Z,10.72
2019-02-21T12:34:46.648Z,10.50
2019-02-21T12:37:19.725Z,9.08
2019-02-21T12:39:52.568Z,9.65
2019-02-21T12:42:25.480Z,9.83
2019-02-21T12:44:58.684Z,9.30
2019-02-21T12:47:31.944Z,14.73
2019-02-21T12:50:04.846Z,10.63
2019-02-21T12:52:38.246Z,8.70
2019-02-21T12:55:11.168Z,10.80
2019-02-21T12:57:44.348Z,10.63
2019-02-21T13:00:17.664Z,8.65
2019-02-21T13:02:50.667Z,9.78
2019-02-21T13:05:23.985Z,18.15
2019-02-21T13:07:57.029Z,11.90
2019-02-21T13:10:29.865Z,10.80
2019-02-21T13:13:02.804Z,12.60
2019-02-21T13:15:35.825Z,10.90
2019-02-21T13:18:15.834Z,8.15
2019-02-21T13:20:44.306Z,10.78
2019-02-21T13:23:17.985Z,10.23
2019-02-21T13:25:50.869Z,11.00
2019-02-21T13:28:23.790Z,10.50
2019-02-21T13:30:59.487Z,10.88
2019-02-21T13:33:31.673Z,9.18
2019-02-21T13:36:04.466Z,9.55
2019-02-21T13:38:37.445Z,9.53
2019-02-21T13:41:10.947Z,8.78
2019-02-21T13:43:44.186Z,9.40
2019-02-21T13:46:17.304Z,9.75
2019-02-21T13:48:50.483Z,7.95
2019-02-21T13:51:23.405Z,9.78
2019-02-21T13:53:56.535Z,9.93
2019-02-21T13:56:29.345Z,11.35
2019-02-21T13:59:02.578Z,10.00
2019-02-21T14:01:36.445Z,9.18
2019-02-21T14:04:09.385Z,8.33
2019-02-21T14:06:42.409Z,7.75
2019-02-21T14:09:15.387Z,7.92
2019-02-21T14:11:48.347Z,10.88
2019-02-21T14:14:21.874Z,10.50
2019-02-21T14:16:54.765Z,10.45
2019-02-21T14:19:27.705Z,9.73
2019-02-21T14:22:01.265Z,11.75
2019-02-21T14:24:37.137Z,9.78
2019-02-21T14:27:09.167Z,11.38
2019-02-21T14:29:42.143Z,10.85
2019-02-21T14:32:15.605Z,11.25
2019-02-21T14:34:48.584Z,10.85
2019-02-21T14:37:21.545Z,11.57
2019-02-21T14:39:54.783Z,11.45
2019-02-21T14:42:27.909Z,11.38
2019-02-21T14:45:01.277Z,9.18
2019-02-21T14:47:34.488Z,11.30
2019-02-21T14:50:07.574Z,9.63
2019-02-21T14:52:40.925Z,9.68
2019-02-21T14:55:13.906Z,9.00
2019-02-21T14:57:47.306Z,9.38
2019-02-21T15:00:20.624Z,8.50
2019-02-21T15:02:53.845Z,9.70
2019-02-21T15:05:26.845Z,10.28
2019-02-21T15:07:59.845Z,9.58
2019-02-21T15:10:32.804Z,10.53
2019-02-21T15:13:05.747Z,11.50
2019-02-21T15:15:38.532Z,9.63
2019-02-21T15:18:11.509Z,8.63
2019-02-21T15:20:44.786Z,8.80
2019-02-21T15:23:17.746Z,8.53
2019-02-21T15:25:50.785Z,8.70
2019-02-21T15:28:23.685Z,8.55
2019-02-21T15:30:56.485Z,9.25
2019-02-21T15:33:29.504Z,8.65
2019-02-21T15:36:02.368Z,10.00
2019-02-21T15:38:35.118Z,8.68
2019-02-21T15:41:08.045Z,9.10
2019-02-21T15:43:40.905Z,9.93
2019-02-21T15:46:13.704Z,8.73
2019-02-21T15:48:46.545Z,8.33
2019-02-21T15:51:19.434Z,8.90
2019-02-21T15:53:52.223Z,8.38
2019-02-21T15:56:25.168Z,8.90
2019-02-21T15:58:58.066Z,8.80
2019-02-21T16:01:30.985Z,8.33
2019-02-21T16:04:04.105Z,7.97
2019-02-21T16:06:39.297Z,9.18
2019-02-21T16:09:16.257Z,7.72
2019-02-21T16:11:46.538Z,7.65
2019-02-21T16:14:19.470Z,7.40
2019-02-21T16:16:52.630Z,7.08
2019-02-21T16:19:25.549Z,8.50
2019-02-21T16:21:58.520Z,8.30
2019-02-21T16:24:31.465Z,8.48
2019-02-21T16:27:04.384Z,8.48
2019-02-21T16:29:37.206Z,8.23
2019-02-21T16:32:10.086Z,8.25
2019-02-21T16:34:43.095Z,8.93
2019-02-21T16:37:16.045Z,8.18
2019-02-21T16:39:49.025Z,8.23
2019-02-21T16:42:22.108Z,7.85
2019-02-21T16:44:55.094Z,7.92
2019-02-21T16:47:27.984Z,8.23
2019-02-21T16:50:00.770Z,7.95
2019-02-21T16:52:33.685Z,8.83
2019-02-21T16:55:08.753Z,8.48
2019-02-21T16:57:41.165Z,8.98
2019-02-21T17:00:14.305Z,8.58
2019-02-21T17:02:47.125Z,8.95
2019-02-21T17:05:19.984Z,8.48
2019-02-21T17:07:52.851Z,8.65
2019-02-21T17:10:25.705Z,8.18
2019-02-21T17:12:58.965Z,8.10
2019-02-21T17:15:31.745Z,8.05
2019-02-21T17:18:04.650Z,8.10
2019-02-21T17:20:37.508Z,7.80
2019-02-21T17:23:10.395Z,8.00
2019-02-21T17:25:43.286Z,9.03
2019-02-21T17:28:16.271Z,8.00
2019-02-21T17:30:49.138Z,7.00
2019-02-21T17:33:22.130Z,8.35
2019-02-21T17:35:55.248Z,7.87
2019-02-21T17:38:28.089Z,7.80
2019-02-21T17:41:01.027Z,7.87
2019-02-21T17:43:33.928Z,8.58
2019-02-21T17:46:06.807Z,9.50
2019-02-21T17:48:39.824Z,9.03
2019-02-21T17:51:12.847Z,9.08
2019-02-21T17:53:45.787Z,9.68
2019-02-21T17:56:18.700Z,8.90
2019-02-21T17:58:51.567Z,8.20
2019-02-21T18:01:24.544Z,8.53
2019-02-21T18:03:57.505Z,9.10
2019-02-21T18:06:30.625Z,8.88
2019-02-21T18:09:05.404Z,7.80
2019-02-21T18:11:38.266Z,7.60
2019-02-21T18:14:11.033Z,8.43
2019-02-21T18:16:43.811Z,8.18
2019-02-21T18:19:21.668Z,8.10
2019-02-21T18:21:54.528Z,7.83
2019-02-21T18:24:27.586Z,8.10
2019-02-21T18:27:00.607Z,6.87
2019-02-21T18:29:34.384Z,4.50
2019-02-21T18:32:07.325Z,4.35
2019-02-21T18:34:40.445Z,3.40
2019-02-21T18:37:14.945Z,3.75
2019-02-21T18:39:48.247Z,3.58
2019-02-21T18:42:21.195Z,3.55
2019-02-21T18:44:54.233Z,3.15
2019-02-21T18:47:27.511Z,2.90
2019-02-21T18:50:00.533Z,3.10
2019-02-21T18:52:33.585Z,2.90
2019-02-21T18:55:06.485Z,2.50
2019-02-21T18:57:39.503Z,2.80
2019-02-21T19:00:12.455Z,3.30
2019-02-21T19:02:45.843Z,2.50
2019-02-21T19:05:18.867Z,2.25
2019-02-21T19:08:00.818Z,2.40
2019-02-21T19:10:26.505Z,2.17
2019-02-21T19:13:00.034Z,2.45
2019-02-21T19:15:32.973Z,2.22
2019-02-21T19:18:05.781Z,2.10
2019-02-21T19:20:38.777Z,2.00
2019-02-21T19:23:12.136Z,1.90
2019-02-21T19:25:44.960Z,2.30
2019-02-21T19:28:17.986Z,2.08
2019-02-21T19:30:51.187Z,2.02
2019-02-21T19:33:24.165Z,2.12
2019-02-21T19:35:57.164Z,2.08
2019-02-21T19:38:30.071Z,2.22
2019-02-21T19:41:02.985Z,2.00
2019-02-21T19:43:35.859Z,1.92
2019-02-21T19:46:09.886Z,2.05
2019-02-21T19:48:42.688Z,2.08
2019-02-21T19:51:15.810Z,2.35
2019-02-21T19:53:49.047Z,2.25
2019-02-21T19:56:22.064Z,2.33
2019-02-21T19:58:54.939Z,2.20
2019-02-21T20:01:27.816Z,2.15
2019-02-21T20:04:01.347Z,2.30
2019-02-21T20:06:35.249Z,2.60
2019-02-21T20:09:08.206Z,3.10
2019-02-21T20:11:41.048Z,2.92
2019-02-21T20:14:14.010Z,3.42
2019-02-21T20:16:47.130Z,3.45
2019-02-21T20:19:19.931Z,3.15
2019-02-21T20:21:54.527Z,2.75
2019-02-21T20:24:27.567Z,2.42
2019-02-21T20:27:00.663Z,2.85
2019-02-21T20:29:33.784Z,2.60
2019-02-21T20:32:06.712Z,2.95
2019-02-21T20:34:40.428Z,2.70
2019-02-21T20:37:13.331Z,3.33
2019-02-21T20:39:47.148Z,3.27
2019-02-21T20:42:20.227Z,2.80
2019-02-21T20:44:53.054Z,2.62
2019-02-21T20:47:26.169Z,2.67
2019-02-21T20:49:58.970Z,2.30
2019-02-21T20:52:31.817Z,2.80
2019-02-21T20:55:04.765Z,2.40
2019-02-21T20:57:37.765Z,2.10
2019-02-21T21:00:10.954Z,2.62
2019-02-21T21:02:43.776Z,2.33
2019-02-21T21:05:16.668Z,2.22
2019-02-21T21:07:50.077Z,2.95
2019-02-21T21:10:23.008Z,3.30
2019-02-21T21:12:55.827Z,2.67
2019-02-21T21:15:29.066Z,2.65
2019-02-21T21:18:02.042Z,2.47
2019-02-21T21:20:34.865Z,2.80
2019-02-21T21:23:07.830Z,2.80
2019-02-21T21:25:40.865Z,2.80
2019-02-21T21:28:13.965Z,3.00
2019-02-21T21:30:46.893Z,2.52
2019-02-21T21:33:19.847Z,2.52
2019-02-21T21:35:53.108Z,2.40
2019-02-21T21:38:26.051Z,2.80
2019-02-21T21:40:59.005Z,2.65
2019-02-21T21:43:31.847Z,3.00
2019-02-21T21:46:04.824Z,2.50
2019-02-21T21:48:37.866Z,2.47
2019-02-21T21:51:10.639Z,2.67
2019-02-21T21:53:43.590Z,2.50
2019-02-21T21:56:16.408Z,3.00
2019-02-21T21:58:49.248Z,3.10
2019-02-21T22:01:22.286Z,2.80
2019-02-21T22:03:55.314Z,2.47
2019-02-21T22:06:28.264Z,2.50
2019-02-21T22:09:04.832Z,2.87
2019-02-21T22:11:36.105Z,2.60
2019-02-21T22:14:08.986Z,2.87
2019-02-21T22:16:42.024Z,3.33
2019-02-21T22:19:14.944Z,2.60
2019-02-21T22:21:47.744Z,2.98
2019-02-21T22:24:20.685Z,2.90
2019-02-21T22:26:53.583Z,2.67
2019-02-21T22:29:26.905Z,2.33
2019-02-21T22:31:59.904Z,2.83
2019-02-21T22:34:32.885Z,3.00
2019-02-21T22:37:06.026Z,3.08
2019-02-21T22:39:38.904Z,2.90
2019-02-21T22:42:11.845Z,2.90
2019-02-21T22:44:45.245Z,3.08
2019-02-21T22:47:18.065Z,2.92
2019-02-21T22:49:51.129Z,3.02
2019-02-21T22:52:24.484Z,3.52
2019-02-21T22:55:09.054Z,3.12
2019-02-21T22:57:32.050Z,3.00
2019-02-21T23:00:05.084Z,3.00
2019-02-21T23:02:38.005Z,2.52
2019-02-21T23:05:11.245Z,3.12
2019-02-21T23:07:44.113Z,3.25
2019-02-21T23:10:17.205Z,3.60
2019-02-21T23:12:50.125Z,3.42
2019-02-21T23:15:23.205Z,3.22
2019-02-21T23:17:56.087Z,3.20
2019-02-21T23:20:28.964Z,3.22
2019-02-21T23:23:01.925Z,3.60
2019-02-21T23:25:35.345Z,3.00
2019-02-21T23:28:08.226Z,2.92
2019-02-21T23:30:41.105Z,2.95
2019-02-21T23:33:14.047Z,2.62
2019-02-21T23:35:46.947Z,2.60
2019-02-21T23:38:20.284Z,2.90
2019-02-21T23:40:53.109Z,2.80
2019-02-21T23:43:26.006Z,2.65
2019-02-21T23:45:58.965Z,2.80
2019-02-21T23:48:32.433Z,2.55
2019-02-21T23:51:05.605Z,2.72
2019-02-21T23:53:38.585Z,2.70
2019-02-21T23:56:11.646Z,2.65
2019-02-21T23:58:44.585Z,2.75
